Time;durP1;ratioP1;P1;durP2;ratioP2;P2;SDS_P1;SDS_P2;PMS_P1;PMS_P2;Temp;Humidity;BMP_temperature;BMP_pressure;BME280_temperature;BME280_humidity;BME280_pressure;Samples;Min_cycle;Max_cycle;Signal;HPM_P1;HPM_P2
2021/09/05 00:02:10;;;;;;;;;27.75;24.75;;;;;;;;5033519;28;46155;-75
2021/09/05 00:04:35;;;;;;;;;27.00;26.33;;;;;22.96;74.20;101373.06;5033902;28;45348;-75
2021/09/05 00:07:01;;;;;;;;;31.00;26.50;;;;;22.87;74.43;101372.00;5034980;28;46974;-75
2021/09/05 00:09:26;;;;;;;;;26.50;24.75;;;;;22.92;74.17;101375.19;5035017;28;45443;-75
2021/09/05 00:11:51;;;;;;;;;25.75;24.00;;;;;22.92;74.22;101367.13;5033533;28;45539;-75
2021/09/05 00:14:17;;;;;;;;;25.75;23.75;;;;;22.87;74.15;101357.75;5033408;28;45407;-76
2021/09/05 00:16:42;;;;;;;;;26.00;23.50;;;;;22.89;74.01;101372.75;5033693;28;45394;-75
2021/09/05 00:19:07;;;;;;;;;23.25;22.00;;;;;22.87;73.79;101360.44;5034010;28;45355;-76
2021/09/05 00:21:33;;;;;;;;;33.00;25.75;;;;;22.84;73.76;101366.91;5033029;28;45412;-75
2021/09/05 00:23:58;;;;;;;;;26.00;25.25;;;;;22.79;74.60;101349.50;5032932;28;45524;-75
2021/09/05 00:26:24;;;;;;;;;29.00;25.50;;;;;22.84;74.37;101363.38;5033371;28;46342;-75
2021/09/05 00:28:49;;;;;;;;;31.75;26.50;;;;;22.84;74.39;101361.53;5041466;28;45459;-75
2021/09/05 00:31:15;;;;;;;;;26.50;23.50;;;;;22.79;74.71;101365.59;5033879;28;51041;-75
2021/09/05 00:33:40;;;;;;;;;24.00;21.00;;;;;22.82;74.32;101363.50;5033119;28;45407;-75
2021/09/05 00:36:05;;;;;;;;;28.50;24.50;;;;;22.83;74.86;101373.25;5033314;28;45502;-75
2021/09/05 00:38:31;;;;;;;;;25.00;21.50;;;;;22.79;74.55;101362.91;5043754;28;47754;-75
2021/09/05 00:40:56;;;;;;;;;27.75;24.75;;;;;22.65;73.98;101339.94;5031749;28;46273;-75
2021/09/05 00:43:21;;;;;;;;;24.75;22.75;;;;;22.73;74.18;101366.13;5033644;28;45436;-75
2021/09/05 00:45:47;;;;;;;;;21.75;20.00;;;;;22.70;73.95;101356.47;5033826;28;45532;-75
2021/09/05 00:48:12;;;;;;;;;23.50;22.00;;;;;22.69;73.63;101360.16;5032722;28;45842;-75
2021/09/05 00:50:38;;;;;;;;;23.75;22.75;;;;;22.74;74.11;101371.34;5034970;28;46358;-75
2021/09/05 00:53:04;;;;;;;;;25.75;24.75;;;;;22.70;73.99;101363.69;5036371;28;45860;-75
2021/09/05 00:55:35;;;;;;;;;25.25;23.00;;;;;22.71;74.42;101368.03;5036670;28;46356;-75
2021/09/05 00:58:00;;;;;;;;;22.25;21.00;;;;;22.73;74.46;101383.03;5035543;28;45601;-76
2021/09/05 01:00:26;;;;;;;;;24.25;21.50;;;;;22.73;74.88;101376.81;5035854;28;46166;-75
2021/09/05 01:02:51;;;;;;;;;22.50;21.50;;;;;22.71;74.69;101368.03;5036004;28;45527;-75
2021/09/05 01:05:17;;;;;;;;;29.00;24.75;;;;;22.69;74.12;101378.06;5036357;28;45394;-76
2021/09/05 01:07:43;;;;;;;;;24.25;22.50;;;;;22.65;74.25;101367.59;5037179;28;45421;-75
2021/09/05 01:10:11;;;;;;;;;24.00;23.25;;;;;22.63;74.68;101374.06;5036100;28;45524;-75
2021/09/05 01:12:36;;;;;;;;;31.50;26.00;;;;;22.59;74.52;101364.56;5034836;28;45542;-75
2021/09/05 01:15:02;;;;;;;;;24.75;22.50;;;;;22.55;74.19;101363.13;5040112;28;45753;-76
2021/09/05 01:17:27;;;;;;;;;24.25;21.25;;;;;22.45;74.41;101348.78;5037675;28;46295;-75
2021/09/05 01:19:53;;;;;;;;;23.75;21.75;;;;;22.50;74.29;101362.66;5043416;28;45314;-75
2021/09/05 01:22:18;;;;;;;;;24.25;20.75;;;;;22.46;74.10;101364.75;5036520;28;45392;-75
2021/09/05 01:24:43;;;;;;;;;25.25;22.25;;;;;22.46;74.64;101374.63;5036033;28;45517;-75
2021/09/05 01:27:09;;;;;;;;;21.25;18.75;;;;;22.43;73.81;101378.41;5035823;28;45397;-75
2021/09/05 01:29:34;;;;;;;;;20.00;17.75;;;;;22.40;73.87;101381.34;5035914;28;45385;-75
2021/09/05 01:31:59;;;;;;;;;24.50;20.50;;;;;22.36;74.08;101377.22;5035980;28;45565;-75
2021/09/05 01:34:25;;;;;;;;;20.25;18.75;;;;;22.33;74.34;101374.78;5036078;28;45768;-75
2021/09/05 01:36:53;;;;;;;;;24.50;23.25;;;;;22.33;74.32;101375.63;5040720;28;45496;-75
2021/09/05 01:39:20;;;;;;;;;23.75;20.50;;;;;22.31;74.07;101376.75;5039206;28;46033;-74
2021/09/05 01:41:47;;;;;;;;;23.50;18.75;;;;;22.29;73.92;101373.31;5035843;28;45816;-76
2021/09/05 01:44:15;;;;;;;;;26.50;21.75;;;;;22.26;74.07;101374.44;5035870;28;45420;-75
2021/09/05 01:46:40;;;;;;;;;24.25;23.75;;;;;22.26;73.99;101377.13;5035457;28;45380;-75
2021/09/05 01:49:06;;;;;;;;;22.75;19.00;;;;;22.25;74.44;101378.09;5035543;28;46384;-76
2021/09/05 01:51:32;;;;;;;;;24.00;20.25;;;;;22.24;74.27;101380.88;5034460;28;45419;-76
2021/09/05 01:54:00;;;;;;;;;22.25;22.25;;;;;22.16;74.38;101369.97;5035807;28;46399;-75
2021/09/05 01:56:32;;;;;;;;;22.25;21.50;;;;;22.23;74.55;101379.19;5043417;28;45539;-75
2021/09/05 01:58:59;;;;;;;;;22.75;20.50;;;;;22.17;74.44;101372.50;5035063;28;46251;-75
2021/09/05 02:01:26;;;;;;;;;23.25;21.00;;;;;22.20;74.62;101388.34;5034442;28;45556;-75
2021/09/05 02:03:51;;;;;;;;;26.75;20.25;;;;;22.18;74.48;101390.25;5035445;28;45566;-75
2021/09/05 02:06:17;;;;;;;;;20.25;18.50;;;;;22.19;74.84;101392.00;5034538;28;45455;-76
2021/09/05 02:08:42;;;;;;;;;21.75;17.50;;;;;22.10;74.63;101382.88;5041864;28;45809;-75
2021/09/05 02:11:07;;;;;;;;;20.00;19.00;;;;;22.17;75.09;101387.72;5035118;28;45373;-75
2021/09/05 02:13:33;;;;;;;;;19.00;18.00;;;;;22.17;75.22;101393.06;5047311;28;45301;-75
2021/09/05 02:15:58;;;;;;;;;20.25;18.50;;;;;22.14;75.18;101391.50;5035823;28;45437;-75
2021/09/05 02:18:24;;;;;;;;;20.00;19.25;;;;;22.13;75.53;101393.34;5034745;28;46863;-75
2021/09/05 02:20:49;;;;;;;;;21.25;21.25;;;;;22.05;75.79;101378.84;5035082;28;45270;-75
2021/09/05 02:23:14;;;;;;;;;22.25;21.00;;;;;22.11;75.58;101386.41;5034766;28;45338;-75
2021/09/05 02:25:40;;;;;;;;;20.50;18.75;;;;;22.08;75.71;101383.91;5034574;28;45226;-75
2021/09/05 02:28:06;;;;;;;;;20.50;17.25;;;;;22.11;75.77;101384.56;5034867;28;55034;-75
2021/09/05 02:30:32;;;;;;;;;20.25;18.50;;;;;22.08;75.43;101384.81;5034017;28;45715;-75
2021/09/05 02:32:57;;;;;;;;;24.25;19.50;;;;;21.92;76.16;101356.69;5034915;28;45305;-75
2021/09/05 02:35:22;;;;;;;;;20.50;19.00;;;;;22.10;75.87;101387.34;5035013;28;45444;-75
2021/09/05 02:37:47;;;;;;;;;19.50;19.50;;;;;22.03;76.05;101378.09;5033494;28;46341;-75
2021/09/05 02:40:13;;;;;;;;;20.50;18.50;;;;;22.09;76.11;101385.66;5048264;28;50040;-75
2021/09/05 02:42:38;;;;;;;;;21.75;21.75;;;;;22.09;75.83;101391.00;5036475;28;45571;-75
2021/09/05 02:45:05;;;;;;;;;25.50;21.00;;;;;22.07;75.71;101387.56;5034510;28;45479;-75
2021/09/05 02:47:31;;;;;;;;;24.50;23.75;;;;;21.97;75.81;101371.41;5034777;28;45377;-75
2021/09/05 02:49:57;;;;;;;;;22.00;21.50;;;;;22.06;75.33;101381.38;5034348;28;45753;-75
2021/09/05 02:52:22;;;;;;;;;24.00;21.25;;;;;22.06;75.82;101397.44;5034654;28;45541;-76
2021/09/05 02:54:48;;;;;;;;;22.25;20.75;;;;;22.05;75.96;101386.88;5034349;28;45663;-75
2021/09/05 02:57:13;;;;;;;;;20.00;17.00;;;;;22.02;75.36;101384.44;5034084;28;46097;-75
2021/09/05 02:59:38;;;;;;;;;23.25;21.75;;;;;22.04;75.89;101391.38;5034155;28;45453;-75
2021/09/05 03:02:04;;;;;;;;;26.25;20.75;;;;;21.96;75.43;101379.56;5034903;28;45368;-75
2021/09/05 03:04:30;;;;;;;;;27.00;23.00;;;;;21.98;75.54;101382.97;5037294;28;45937;-75
2021/09/05 03:06:55;;;;;;;;;22.75;19.75;;;;;22.04;75.98;101387.84;5043651;28;45471;-75
2021/09/05 03:09:21;;;;;;;;;24.50;22.25;;;;;22.02;75.48;101389.78;5017925;28;45409;-75
2021/09/05 03:11:46;;;;;;;;;23.50;21.25;;;;;21.98;75.82;101378.50;5024657;28;45383;-75
2021/09/05 03:14:12;;;;;;;;;22.50;21.75;;;;;22.00;75.69;101384.56;5034329;28;45427;-75
2021/09/05 03:16:37;;;;;;;;;20.75;19.50;;;;;21.99;75.77;101387.38;5033383;28;45688;-75
2021/09/05 03:19:02;;;;;;;;;20.25;18.50;;;;;21.94;75.66;101376.19;5034248;28;45360;-75
2021/09/05 03:21:28;;;;;;;;;22.00;18.00;;;;;21.93;75.60;101378.00;5036678;28;45569;-75
2021/09/05 03:23:53;;;;;;;;;21.75;19.75;;;;;21.91;75.63;101382.63;5034033;28;45407;-75
2021/09/05 03:26:19;;;;;;;;;23.00;20.25;;;;;21.77;76.08;101354.31;5033405;28;46357;-75
2021/09/05 03:28:44;;;;;;;;;16.00;16.00;;;;;21.90;75.78;101372.91;5014704;28;45635;-75
2021/09/05 03:31:09;;;;;;;;;22.50;17.00;;;;;21.93;75.46;101380.69;5034462;28;51324;-75
2021/09/05 03:33:35;;;;;;;;;19.25;18.00;;;;;21.93;76.03;101382.50;5034063;28;45415;-75
2021/09/05 03:36:00;;;;;;;;;24.25;20.75;;;;;21.89;76.29;101381.91;5035347;28;47225;-75
2021/09/05 03:38:25;;;;;;;;;18.00;16.75;;;;;21.88;75.43;101375.69;5047155;28;45549;-75
2021/09/05 03:40:51;;;;;;;;;23.50;19.25;;;;;21.86;76.11;101371.44;5034068;28;45477;-75
2021/09/05 03:43:16;;;;;;;;;17.75;17.00;;;;;21.89;75.77;101379.22;5034991;28;45397;-75
2021/09/05 03:45:41;;;;;;;;;18.50;16.50;;;;;21.86;76.02;101374.94;5033397;28;46152;-75
2021/09/05 03:48:07;;;;;;;;;17.75;16.25;;;;;21.82;76.08;101373.53;5033737;28;45450;-75
2021/09/05 03:50:32;;;;;;;;;20.75;18.75;;;;;21.80;76.09;101367.44;5033900;28;45615;-75
2021/09/05 03:52:58;;;;;;;;;21.25;20.00;;;;;21.83;75.69;101374.38;5033635;28;45467;-75
2021/09/05 03:55:23;;;;;;;;;20.25;16.25;;;;;21.80;75.38;101369.25;5034581;28;46022;-75
2021/09/05 03:57:49;;;;;;;;;20.00;17.75;;;;;21.84;75.36;101373.41;5033064;28;45336;-75
2021/09/05 04:00:14;;;;;;;;;21.75;17.75;;;;;21.84;75.79;101373.41;5033466;28;45457;-75
2021/09/05 04:02:39;;;;;;;;;18.25;15.25;;;;;21.82;75.44;101369.97;5033753;28;45266;-75
2021/09/05 04:05:07;;;;;;;;;20.50;17.25;;;;;21.80;75.03;101369.25;5033488;28;48713;-75
2021/09/05 04:07:34;;;;;;;;;20.00;14.75;;;;;21.79;74.86;101376.44;5035120;28;45374;-75
2021/09/05 04:10:08;;;;;;;;;19.75;16.00;;;;;21.80;74.90;101378.13;5033421;28;45492;-75
2021/09/05 04:12:38;;;;;;;;;21.25;20.25;;;;;21.82;74.71;101378.88;5033550;28;45533;-75
2021/09/05 04:15:04;;;;;;;;;17.25;16.75;;;;;21.84;75.26;101386.78;5032423;28;45558;-75
2021/09/05 04:17:29;;;;;;;;;18.75;17.50;;;;;21.84;75.15;101387.63;5033650;28;45444;-75
2021/09/05 04:19:54;;;;;;;;;17.50;16.50;;;;;21.82;75.10;101378.00;5033189;28;45440;-75
2021/09/05 04:22:20;;;;;;;;;21.75;18.25;;;;;21.76;74.53;101384.69;5033989;28;45450;-75
2021/09/05 04:24:45;;;;;;;;;14.50;13.50;;;;;21.82;74.55;101391.38;5033395;28;45860;-75
2021/09/05 04:27:10;;;;;;;;;18.00;16.75;;;;;21.80;75.01;101394.19;5036631;28;49969;-75
2021/09/05 04:29:35;;;;;;;;;19.75;17.25;;;;;21.81;74.56;101400.38;5035942;28;45638;-75
2021/09/05 04:32:01;;;;;;;;;17.00;16.50;;;;;21.80;75.31;101393.34;5038651;28;45306;-75
2021/09/05 04:34:26;;;;;;;;;19.00;18.00;;;;;21.73;75.24;101382.28;5036884;28;45382;-75
2021/09/05 04:36:51;;;;;;;;;17.50;16.75;;;;;21.79;74.94;101397.00;5017035;28;48631;-75
2021/09/05 04:39:17;;;;;;;;;20.25;16.50;;;;;21.77;75.32;101393.56;5030937;28;45393;-75
2021/09/05 04:41:42;;;;;;;;;18.50;17.50;;;;;21.74;74.61;101399.19;5036139;28;45231;-76
2021/09/05 04:44:08;;;;;;;;;23.00;17.00;;;;;21.76;75.16;101395.41;5036733;28;47311;-75
2021/09/05 04:46:33;;;;;;;;;19.25;17.75;;;;;21.73;74.94;101395.66;5037232;28;45350;-75
2021/09/05 04:48:58;;;;;;;;;19.00;17.50;;;;;21.69;74.79;101402.22;5035527;28;45484;-75
2021/09/05 04:51:24;;;;;;;;;20.00;16.00;;;;;21.73;75.25;101403.69;5035893;28;45269;-75
2021/09/05 04:53:49;;;;;;;;;18.25;15.75;;;;;21.69;74.91;101407.56;5039801;28;45489;-75
2021/09/05 04:56:14;;;;;;;;;19.25;15.50;;;;;21.69;75.50;101404.88;5036461;28;45400;-75
2021/09/05 04:58:41;;;;;;;;;19.50;17.00;;;;;21.71;74.99;101413.63;5036763;28;45351;-75
2021/09/05 05:01:06;;;;;;;;;18.75;16.25;;;;;21.70;75.48;101419.13;5036536;28;45542;-75
2021/09/05 05:03:32;;;;;;;;;19.75;16.00;;;;;21.68;74.96;101415.72;5036086;28;46268;-75
2021/09/05 05:05:57;;;;;;;;;19.00;17.00;;;;;21.66;75.33;101418.50;5035047;28;45371;-75
2021/09/05 05:08:22;;;;;;;;;16.00;16.00;;;;;21.65;75.39;101430.16;5036037;28;45475;-75
2021/09/05 05:10:48;;;;;;;;;20.50;17.50;;;;;21.66;74.95;101425.66;5036899;28;45562;-75
2021/09/05 05:13:13;;;;;;;;;16.50;16.25;;;;;21.61;75.65;101426.91;5036480;28;46009;-75
2021/09/05 05:15:38;;;;;;;;;19.25;19.25;;;;;21.65;75.43;101437.34;5035983;28;45399;-75
2021/09/05 05:18:03;;;;;;;;;17.50;17.00;;;;;21.61;75.75;101429.59;5035338;28;49191;-75
2021/09/05 05:20:29;;;;;;;;;14.25;14.25;;;;;21.62;75.56;101435.78;5035915;28;48887;-75
2021/09/05 05:22:55;;;;;;;;;15.25;14.25;;;;;21.63;75.63;101442.81;5035448;28;46046;-75
2021/09/05 05:25:21;;;;;;;;;15.50;14.50;;;;;21.60;75.05;101438.56;5035340;28;45586;-74
2021/09/05 05:27:46;;;;;;;;;21.75;17.50;;;;;21.64;75.27;101449.88;5035970;28;45487;-75
2021/09/05 05:30:12;;;;;;;;;20.25;19.75;;;;;21.60;75.34;101443.91;5035584;28;45432;-74
2021/09/05 05:32:38;;;;;;;;;19.00;16.75;;;;;21.65;75.61;101450.72;5034704;28;46776;-74
2021/09/05 05:35:04;;;;;;;;;18.75;17.25;;;;;21.62;75.31;101450.00;5035518;28;45566;-74
2021/09/05 05:37:29;;;;;;;;;14.50;14.00;;;;;21.62;75.40;101452.69;5035502;28;45255;-75
2021/09/05 05:39:54;;;;;;;;;16.25;15.50;;;;;21.66;75.05;101447.91;5035902;28;45360;-74
2021/09/05 05:42:20;;;;;;;;;16.25;15.75;;;;;21.70;75.01;101459.25;5034977;28;45561;-75
2021/09/05 05:44:45;;;;;;;;;18.75;17.00;;;;;21.67;75.14;101452.31;5034930;28;51322;-74
2021/09/05 05:47:10;;;;;;;;;18.25;16.25;;;;;21.68;74.78;101458.53;5035352;28;45397;-75
2021/09/05 05:49:36;;;;;;;;;17.75;17.00;;;;;21.76;74.77;101458.75;5035757;28;45591;-75
2021/09/05 05:52:02;;;;;;;;;20.00;17.75;;;;;21.78;74.54;101468.38;5036429;28;46102;-74
2021/09/05 05:54:28;;;;;;;;;22.00;18.50;;;;;21.80;74.53;101469.09;5034779;28;45447;-75
2021/09/05 05:56:53;;;;;;;;;20.25;16.25;;;;;21.81;74.16;101465.44;5035607;28;45314;-74
2021/09/05 05:59:18;;;;;;;;;20.50;16.00;;;;;21.84;74.52;101467.03;5034934;28;49481;-74
2021/09/05 06:01:44;;;;;;;;;23.75;16.50;;;;;21.88;74.37;101463.16;5037667;28;47584;-74
2021/09/05 06:04:10;;;;;;;;;19.75;18.00;;;;;21.88;74.24;101465.84;5035890;28;45373;-74
2021/09/05 06:06:36;;;;;;;;;17.00;16.00;;;;;21.92;74.07;101461.06;5035332;28;45530;-74
2021/09/05 06:09:01;;;;;;;;;16.75;14.75;;;;;21.97;73.95;101461.56;5035251;28;45280;-75
2021/09/05 06:11:27;;;;;;;;;19.00;16.75;;;;;22.00;73.94;101464.84;5034603;28;45525;-74
2021/09/05 06:13:53;;;;;;;;;15.50;15.25;;;;;22.05;73.70;101475.19;5035334;28;45343;-75
2021/09/05 06:16:18;;;;;;;;;14.75;14.25;;;;;22.00;73.50;101467.53;5034415;28;45289;-75
2021/09/05 06:18:43;;;;;;;;;18.00;15.75;;;;;22.04;73.25;101470.81;5034966;28;45515;-74
2021/09/05 06:21:08;;;;;;;;;19.50;16.50;;;;;22.10;73.47;101481.03;5038251;28;46010;-74
2021/09/05 06:23:34;;;;;;;;;16.25;15.25;;;;;22.08;73.20;101483.84;5046645;28;45621;-75
2021/09/05 06:25:59;;;;;;;;;16.50;15.75;;;;;22.12;73.10;101490.66;5034948;28;48864;-75
2021/09/05 06:28:24;;;;;;;;;16.25;16.25;;;;;22.12;73.05;101484.47;5035464;28;45459;-74
2021/09/05 06:30:50;;;;;;;;;17.50;16.00;;;;;22.12;73.02;101493.34;5034037;28;46929;-75
2021/09/05 06:33:15;;;;;;;;;17.00;15.00;;;;;22.14;72.79;101486.06;5034929;28;45364;-74
2021/09/05 06:35:40;;;;;;;;;18.75;17.25;;;;;22.17;73.11;101486.78;5034492;28;45453;-74
2021/09/05 06:38:06;;;;;;;;;17.75;16.25;;;;;22.26;72.86;101507.47;5034927;28;45377;-74
2021/09/05 06:40:31;;;;;;;;;18.00;16.75;;;;;22.29;72.66;101504.53;5035971;28;45469;-76
2021/09/05 06:42:56;;;;;;;;;18.50;18.00;;;;;22.34;72.71;101508.56;5034008;28;45498;-75
2021/09/05 06:45:22;;;;;;;;;20.00;17.00;;;;;22.33;72.24;101497.97;5032990;28;48676;-74
2021/09/05 06:47:47;;;;;;;;;16.25;14.75;;;;;22.41;72.01;101503.56;5039908;28;45517;-74
2021/09/05 06:50:12;;;;;;;;;16.50;16.00;;;;;22.47;72.09;101512.94;5040916;28;48409;-75
2021/09/05 06:52:38;;;;;;;;;16.75;15.00;;;;;22.31;71.60;101478.50;5034375;28;45435;-75
2021/09/05 06:55:04;;;;;;;;;16.50;14.00;;;;;22.52;71.20;101500.84;5034796;28;45475;-75
2021/09/05 06:57:29;;;;;;;;;14.75;14.75;;;;;22.63;70.28;101522.28;5034702;28;45403;-75
2021/09/05 06:59:55;;;;;;;;;18.00;15.75;;;;;22.70;70.41;101524.44;5033335;28;46549;-75
2021/09/05 07:02:20;;;;;;;;;13.50;13.00;;;;;22.75;69.91;101524.91;5034675;28;53566;-75
2021/09/05 07:04:46;;;;;;;;;14.00;13.25;;;;;22.81;69.75;101521.72;5034062;28;45773;-74
2021/09/05 07:07:11;;;;;;;;;15.25;12.25;;;;;22.67;69.33;101486.22;5040046;28;45674;-75
2021/09/05 07:09:37;;;;;;;;;13.75;12.00;;;;;23.03;68.73;101537.81;5042438;28;46321;-75
2021/09/05 07:12:02;;;;;;;;;14.50;12.75;;;;;23.15;68.74;101544.81;5041907;28;45345;-74
2021/09/05 07:14:28;;;;;;;;;14.25;13.00;;;;;23.29;68.53;101543.66;5032711;28;45483;-75
2021/09/05 07:16:53;;;;;;;;;17.00;13.25;;;;;23.43;68.13;101537.13;5035022;28;45527;-75
2021/09/05 07:19:18;;;;;;;;;16.50;13.25;;;;;23.59;67.62;101537.53;5034369;28;49847;-75
2021/09/05 07:21:44;;;;;;;;;15.25;13.75;;;;;23.77;67.73;101543.19;5018430;28;53869;-75
2021/09/05 07:24:09;;;;;;;;;18.00;13.00;;;;;23.83;67.74;101523.88;5032806;28;55315;-75
2021/09/05 07:26:36;;;;;;;;;16.00;14.25;;;;;24.10;67.10;101539.41;5045840;28;45466;-75
2021/09/05 07:29:02;;;;;;;;;14.75;12.00;;;;;24.11;66.37;101513.41;5033389;28;46037;-75
2021/09/05 07:31:27;;;;;;;;;17.50;15.25;;;;;24.56;66.40;101547.97;5034916;28;45552;-75
2021/09/05 07:33:53;;;;;;;;;15.50;14.00;;;;;24.82;65.46;101543.78;5034288;28;45577;-76
2021/09/05 07:36:18;;;;;;;;;15.75;13.25;;;;;25.14;65.20;101545.41;5031920;28;45443;-74
2021/09/05 07:38:43;;;;;;;;;13.25;12.50;;;;;25.37;64.08;101545.97;5032113;28;46189;-75
2021/09/05 07:41:08;;;;;;;;;13.50;12.00;;;;;25.59;63.84;101550.22;5026769;28;45464;-75
2021/09/05 07:43:34;;;;;;;;;15.00;12.75;;;;;25.82;63.49;101556.16;5012474;28;45500;-75
2021/09/05 07:45:59;;;;;;;;;15.50;13.75;;;;;25.88;62.46;101521.41;5033468;28;55595;-75
2021/09/05 07:48:25;;;;;;;;;12.75;11.50;;;;;26.33;62.22;101549.47;5032416;28;46050;-74
2021/09/05 07:50:50;;;;;;;;;14.00;13.00;;;;;26.73;61.53;101558.09;5033457;28;45527;-74
2021/09/05 07:53:15;;;;;;;;;15.00;12.50;;;;;26.95;60.37;101564.91;5034766;28;45742;-74
2021/09/05 07:55:41;;;;;;;;;13.00;12.50;;;;;27.01;60.00;101549.94;5037276;28;45471;-74
2021/09/05 07:58:06;;;;;;;;;17.25;13.25;;;;;27.19;58.98;101564.31;5032900;28;45711;-74
2021/09/05 08:00:32;;;;;;;;;11.75;11.50;;;;;27.24;59.50;101555.75;5034766;28;45431;-74
2021/09/05 08:02:57;;;;;;;;;14.75;13.00;;;;;27.17;58.08;101550.13;5035987;28;45597;-75
2021/09/05 08:05:22;;;;;;;;;12.25;11.00;;;;;27.30;58.94;101564.09;5040487;28;52600;-74
2021/09/05 08:07:47;;;;;;;;;11.00;8.50;;;;;27.46;58.65;101573.31;5036160;28;46101;-73
2021/09/05 08:10:13;;;;;;;;;11.25;10.00;;;;;27.76;58.84;101572.94;5035794;28;45277;-74
2021/09/05 08:12:38;;;;;;;;;12.50;9.50;;;;;28.08;56.84;101584.94;5035929;28;45316;-74
2021/09/05 08:15:04;;;;;;;;;12.50;11.25;;;;;28.21;56.06;101579.97;5036925;28;45389;-73
2021/09/05 08:17:29;;;;;;;;;10.50;9.50;;;;;28.22;55.62;101584.38;5035113;28;46297;-74
2021/09/05 08:19:55;;;;;;;;;13.25;10.50;;;;;28.15;55.78;101571.69;5038765;28;45625;-74
2021/09/05 08:22:20;;;;;;;;;11.00;11.00;;;;;28.23;55.42;101585.22;5038502;28;45332;-74
2021/09/05 08:24:46;;;;;;;;;15.50;12.00;;;;;28.21;55.57;101584.53;5036145;28;45388;-74
2021/09/05 08:27:11;;;;;;;;;16.75;14.00;;;;;28.40;55.19;101589.75;5035709;28;45611;-74
2021/09/05 08:29:36;;;;;;;;;14.00;12.25;;;;;28.87;54.94;101586.56;5040263;28;45493;-74
2021/09/05 08:32:03;;;;;;;;;17.75;13.00;;;;;30.50;54.65;101593.81;5018890;28;45338;-75
2021/09/05 08:34:28;;;;;;;;;14.00;10.75;;;;;32.15;51.93;101594.19;5036748;28;45363;-75
2021/09/05 08:36:54;;;;;;;;;14.75;12.25;;;;;33.62;49.73;101597.66;5036838;28;45432;-75
2021/09/05 08:39:19;;;;;;;;;13.00;12.00;;;;;35.54;46.69;101592.31;5036703;28;45814;-75
2021/09/05 08:41:45;;;;;;;;;14.25;11.50;;;;;37.74;43.50;101595.84;5038285;28;45347;-75
2021/09/05 08:44:10;;;;;;;;;12.75;11.00;;;;;39.86;41.46;101598.59;5038995;28;45651;-75
2021/09/05 08:46:37;;;;;;;;;10.00;10.00;;;;;41.91;38.15;101598.72;5036981;28;46206;-75
2021/09/05 08:49:03;;;;;;;;;10.00;10.00;;;;;43.46;35.39;101601.13;5036180;28;45694;-75
2021/09/05 08:51:29;;;;;;;;;11.25;10.25;;;;;44.48;34.11;101608.16;5035793;28;45630;-73
2021/09/05 08:53:55;;;;;;;;;13.50;12.25;;;;;44.95;32.69;101607.19;5037678;28;45326;-74
2021/09/05 08:56:20;;;;;;;;;11.00;9.75;;;;;45.23;32.64;101616.09;5036814;28;46170;-73
2021/09/05 08:58:45;;;;;;;;;11.25;9.25;;;;;44.94;31.77;101624.06;5041416;28;45396;-76
2021/09/05 09:01:18;;;;;;;;;11.50;11.50;;;;;44.43;31.73;101616.44;5043322;28;45590;-75
2021/09/05 09:03:44;;;;;;;;;11.25;9.75;;;;;44.09;30.91;101612.38;5038695;28;45537;-76
2021/09/05 09:06:16;;;;;;;;;11.25;11.00;;;;;43.25;30.95;101602.88;5035182;28;46041;-76
2021/09/05 09:08:41;;;;;;;;;9.25;7.25;;;;;42.04;32.20;101609.44;5035517;28;45460;-73
2021/09/05 09:11:11;;;;;;;;;12.50;9.50;;;;;41.04;32.42;101618.50;5034491;28;45574;-75
2021/09/05 09:15:02;;;;;;;;;8.00;8.00;;;;;40.39;33.37;101616.88;5126015;27;45443;-80
2021/09/05 09:17:37;;;;;;;;;13.75;10.75;;;;;40.47;33.32;101618.41;5109893;27;45508;-79
2021/09/05 09:20:02;;;;;;;;;10.00;8.75;;;;;40.49;32.71;101622.59;5098049;27;45453;-78
2021/09/05 09:22:28;;;;;;;;;11.75;10.50;;;;;40.61;32.71;101615.16;5111499;27;45506;-80
2021/09/05 09:24:53;;;;;;;;;6.75;6.50;;;;;40.76;33.28;101620.13;5103840;27;46377;-80
2021/09/05 09:27:19;;;;;;;;;9.25;9.25;;;;;40.69;32.89;101625.78;5107112;27;46445;-80
2021/09/05 09:29:44;;;;;;;;;8.25;8.25;;;;;40.56;32.29;101617.81;5106803;27;45528;-80
2021/09/05 09:32:22;;;;;;;;;9.50;9.50;;;;;40.50;32.63;101627.03;5107007;27;45871;-80
2021/09/05 09:34:48;;;;;;;;;8.50;8.50;;;;;40.52;32.36;101621.31;5107089;27;45525;-80
2021/09/05 09:37:16;;;;;;;;;8.50;8.00;;;;;40.55;32.97;101627.16;5108126;27;45314;-80
2021/09/05 09:39:46;;;;;;;;;8.00;8.00;;;;;40.40;32.62;101626.78;5104415;27;45557;-81
2021/09/05 09:42:30;;;;;;;;;8.50;8.50;;;;;40.12;32.30;101624.81;5108578;27;45393;-80
2021/09/05 09:44:55;;;;;;;;;7.75;7.75;;;;;39.91;32.09;101621.56;5103808;27;47335;-80
2021/09/05 09:47:21;;;;;;;;;9.00;8.50;;;;;39.72;33.11;101603.50;5109748;27;45586;-79
2021/09/05 09:49:51;;;;;;;;;8.50;8.00;;;;;39.68;32.62;101613.31;5110326;27;45304;-79
2021/09/05 09:52:22;;;;;;;;;9.75;8.00;;;;;39.69;33.05;101612.22;5098111;27;45473;-80
2021/09/05 09:54:48;;;;;;;;;8.50;7.75;;;;;39.49;32.31;101608.94;5104192;27;46296;-80
2021/09/05 09:57:13;;;;;;;;;9.25;7.75;;;;;39.19;33.18;101611.75;5103320;27;45470;-79
2021/09/05 09:59:38;;;;;;;;;9.00;9.00;;;;;39.17;33.05;101617.47;5098805;27;45389;-80
2021/09/05 10:02:05;;;;;;;;;11.50;10.75;;;;;39.18;32.70;101612.78;5102737;27;45499;-80
2021/09/05 10:04:31;;;;;;;;;10.75;9.50;;;;;39.22;33.47;101609.38;5110854;27;45448;-79
2021/09/05 10:06:57;;;;;;;;;9.75;8.75;;;;;39.30;32.71;101605.44;5100712;27;45570;-79
2021/09/05 10:09:24;;;;;;;;;9.00;9.00;;;;;39.65;32.54;101614.63;5097637;27;45361;-79
2021/09/05 10:11:50;;;;;;;;;6.50;6.50;;;;;40.12;32.60;101619.31;5093390;27;45894;-79
2021/09/05 10:14:19;;;;;;;;;9.25;9.25;;;;;40.52;32.12;101618.56;5114672;27;45606;-80
2021/09/05 10:16:45;;;;;;;;;11.50;11.00;;;;;41.04;31.80;101618.50;5096329;27;45486;-79
2021/09/05 10:19:11;;;;;;;;;8.00;8.00;;;;;41.42;31.95;101618.66;5105173;27;45514;-79
2021/09/05 10:21:36;;;;;;;;;11.25;8.25;;;;;41.22;31.32;101606.41;5104395;27;45673;-79
2021/09/05 10:24:11;;;;;;;;;14.75;13.00;;;;;40.63;31.37;101601.16;5103781;27;46093;-79
2021/09/05 10:26:36;;;;;;;;;13.00;12.75;;;;;40.09;32.09;101603.25;5089963;27;45612;-79
2021/09/05 10:29:12;;;;;;;;;12.25;11.00;;;;;39.79;32.44;101609.72;5085776;27;55885;-80
2021/09/05 10:31:39;;;;;;;;;12.00;11.75;;;;;39.43;33.54;101598.91;5093929;27;45553;-80
2021/09/05 10:34:34;;;;;;;;;9.50;9.50;;;;;39.13;32.82;101603.34;5086700;27;47249;-79
2021/09/05 10:37:13;;;;;;;;;11.00;10.25;;;;;38.91;33.38;101593.94;5089273;27;45674;-77
2021/09/05 10:40:09;;;;;;;;;13.25;11.25;;;;;38.75;32.86;101608.34;5084758;27;45663;-80
2021/09/05 10:42:52;;;;;;;;;13.75;11.75;;;;;38.49;33.26;101595.75;5090505;27;45444;-80
2021/09/05 10:45:18;;;;;;;;;10.75;9.75;;;;;38.35;33.83;101592.31;5088335;27;46234;-80
2021/09/05 10:47:44;;;;;;;;;11.25;10.25;;;;;38.26;33.93;101607.38;5082434;27;45526;-79
2021/09/05 10:50:30;;;;;;;;;10.75;9.75;;;;;38.15;34.61;101597.16;5094708;27;45625;-80
2021/09/05 10:52:55;;;;;;;;;11.50;10.25;;;;;38.18;34.23;101607.69;5093287;27;45568;-78
2021/09/05 10:55:21;;;;;;;;;10.75;10.75;;;;;38.13;34.43;101603.72;5088727;27;54393;-80
2021/09/05 10:57:46;;;;;;;;;12.00;12.00;;;;;38.09;34.71;101608.00;5093601;27;45514;-80
2021/09/05 11:00:12;;;;;;;;;13.75;13.75;;;;;38.02;34.57;101599.00;5093585;27;45775;-79
2021/09/05 11:03:06;;;;;;;;;11.75;10.75;;;;;38.06;34.54;101596.66;5094662;27;45548;-79
2021/09/05 11:05:31;;;;;;;;;8.75;8.75;;;;;37.99;34.43;101593.94;5093039;27;46194;-80
2021/09/05 11:08:24;;;;;;;;;11.00;11.00;;;;;37.92;34.89;101590.44;5083743;27;52819;-82
2021/09/05 11:10:51;;;;;;;;;11.75;11.00;;;;;37.77;34.35;101585.28;5108875;27;45829;-78